Time;durP1;ratioP1;P1;durP2;ratioP2;P2;SDS_P1;SDS_P2;PMS_P1;PMS_P2;Temp;Humidity;BMP_temperature;BMP_pressure;BME280_temperature;BME280_humidity;BME280_pressure;Samples;Min_cycle;Max_cycle;Signal;HPM_P1;HPM_P2
2023/08/13 00:02:43;;;;;;;495.53;301.17;;;19.40;23.10;;;;;;5056520;28;20506;-81
2023/08/13 00:05:14;;;;;;;532.80;305.87;;;19.40;19.40;;;;;;5055218;28;20469;-81
2023/08/13 00:07:44;;;;;;;526.07;294.77;;;19.40;21.80;;;;;;5056357;28;20433;-81
2023/08/13 00:10:43;;;;;;;504.93;295.17;;;19.30;21.70;;;;;;5041978;28;20822;-81
2023/08/13 00:13:43;;;;;;;510.30;286.80;;;19.30;22.70;;;;;;5051678;28;20475;-80
2023/08/13 00:16:44;;;;;;;531.23;294.80;;;19.20;21.40;;;;;;5050723;28;20909;-81
2023/08/13 00:19:10;;;;;;;510.87;276.23;;;19.10;20.70;;;;;;5046381;28;20465;-80
2023/08/13 00:21:44;;;;;;;236.87;195.07;;;19.10;26.90;;;;;;5053097;28;20469;-80
2023/08/13 00:24:14;;;;;;;257.73;197.97;;;19.10;25.00;;;;;;5045795;28;20174;-80
2023/08/13 00:27:13;;;;;;;219.77;184.43;;;19.00;25.20;;;;;;5054507;28;20464;-80
2023/08/13 00:30:13;;;;;;;241.53;180.50;;;19.00;26.20;;;;;;5055787;28;20527;-80
2023/08/13 00:33:14;;;;;;;287.90;208.23;;;19.00;30.00;;;;;;5036063;28;20725;-80
2023/08/13 00:35:44;;;;;;;257.80;203.97;;;19.00;28.40;;;;;;5045515;28;20440;-81
2023/08/13 00:38:14;;;;;;;254.50;197.77;;;19.00;31.50;;;;;;5054520;28;20418;-81
2023/08/13 00:40:44;;;;;;;479.40;277.97;;;19.00;35.70;;;;;;5055397;28;20871;-80
2023/08/13 00:43:43;;;;;;;527.63;305.47;;;19.10;34.70;;;;;;5045833;28;20431;-80
2023/08/13 00:46:44;;;;;;;483.50;278.03;;;19.10;47.30;;;;;;5054175;28;20907;-81
2023/08/13 00:49:15;;;;;;;543.53;290.30;;;19.10;46.80;;;;;;5045826;28;20561;-80
2023/08/13 00:51:44;;;;;;;502.40;285.60;;;19.10;50.00;;;;;;5055477;28;20413;-81
2023/08/13 00:54:14;;;;;;;448.90;261.80;;;19.10;46.80;;;;;;5055067;28;20430;-80
2023/08/13 00:57:08;;;;;;;468.30;284.57;;;19.10;50.20;;;;;;5048983;28;20763;-81
2023/08/13 01:02:56;;;;;;;502.13;264.47;;;19.10;50.00;;;;;;5052719;28;20759;-81
2023/08/13 01:05:51;;;;;;;443.67;283.23;;;19.10;49.90;;;;;;5052959;28;20423;-81
2023/08/13 01:08:43;;;;;;;489.80;279.93;;;19.00;46.80;;;;;;5052987;28;20463;-81
2023/08/13 01:11:43;;;;;;;505.20;276.93;;;19.00;50.10;;;;;;5045669;28;20389;-80
2023/08/13 01:14:35;;;;;;;454.27;256.20;;;18.90;49.90;;;;;;5053643;28;20429;-82
2023/08/13 01:17:17;;;;;;;505.17;265.37;;;18.90;49.80;;;;;;5054891;28;20414;-81
2023/08/13 01:19:44;;;;;;;502.07;276.90;;;18.90;46.70;;;;;;5054922;28;20509;-80
2023/08/13 01:22:10;;;;;;;518.07;286.30;;;18.90;49.80;;;;;;5051223;28;20404;-81
2023/08/13 01:24:38;;;;;;;493.30;282.53;;;18.80;53.60;;;;;;5043188;28;20482;-81
2023/08/13 01:27:06;;;;;;;415.20;256.50;;;18.80;49.60;;;;;;5045033;28;20663;-81
2023/08/13 01:29:59;;;;;;;326.93;223.70;;;18.70;49.80;;;;;;5044042;28;20454;-81
2023/08/13 01:32:41;;;;;;;314.67;215.57;;;18.70;46.50;;;;;;5051783;28;20433;-81
2023/08/13 01:35:16;;;;;;;387.50;241.00;;;18.70;49.90;;;;;;5040820;28;20500;-81
2023/08/13 01:37:44;;;;;;;413.00;256.87;;;18.80;49.80;;;;;;5044693;28;20490;-81
2023/08/13 01:40:14;;;;;;;429.50;255.57;;;18.80;46.60;;;;;;5040316;28;20792;-81
2023/08/13 01:42:44;;;;;;;428.13;274.50;;;18.90;50.00;;;;;;5053294;28;20422;-81
2023/08/13 01:45:14;;;;;;;431.93;273.87;;;18.90;46.70;;;;;;5053563;28;20497;-81
2023/08/13 01:48:08;;;;;;;426.97;266.03;;;18.90;50.00;;;;;;5049929;28;20859;-81
2023/08/13 01:51:07;;;;;;;437.43;269.57;;;19.00;46.80;;;;;;5039317;28;20474;-80
2023/08/13 01:53:44;;;;;;;538.97;267.73;;;19.00;50.30;;;;;;5041019;28;20429;-80
2023/08/13 01:56:14;;;;;;;462.37;269.97;;;19.10;46.80;;;;;;5051902;28;20514;-80
2023/08/13 02:12:07;;;;;;;444.67;253.60;;;19.00;49.90;;;;;;5053661;28;20490;-81
2023/08/13 02:21:20;;;;;;;496.23;256.73;;;18.80;46.60;;;;;;5034351;28;20801;-80
2023/08/13 02:30:29;;;;;;;462.10;236.60;;;18.80;49.70;;;;;;5049201;28;20802;-81
2023/08/13 02:36:16;;;;;;;493.10;258.63;;;18.90;50.20;;;;;;5045425;28;20215;-80
2023/08/13 02:39:03;;;;;;;503.47;255.13;;;18.90;50.20;;;;;;5053455;28;20437;-80
2023/08/13 02:41:28;;;;;;;513.33;272.60;;;18.90;50.10;;;;;;5053423;28;20214;-80
2023/08/13 02:43:56;;;;;;;518.70;259.37;;;18.90;49.90;;;;;;5043997;28;20540;-80
2023/08/13 02:49:43;;;;;;;510.03;265.90;;;18.90;50.00;;;;;;5053319;28;20560;-80
2023/08/13 02:52:43;;;;;;;503.53;271.43;;;18.90;46.70;;;;;;5053762;28;20907;-81
2023/08/13 02:59:01;;;;;;;510.63;260.07;;;18.90;46.70;;;;;;5048522;28;20473;-81
2023/08/13 03:04:49;;;;;;;527.90;260.77;;;18.90;46.70;;;;;;5046203;28;21008;-81
2023/08/13 03:07:37;;;;;;;526.73;279.53;;;18.90;50.00;;;;;;5047913;28;20431;-79
2023/08/13 03:13:25;;;;;;;473.90;240.93;;;18.90;50.10;;;;;;5036510;28;20449;-80
2023/08/13 03:19:12;;;;;;;299.90;197.60;;;18.80;49.90;;;;;;5054643;28;20186;-80
2023/08/13 03:28:21;;;;;;;461.90;253.60;;;18.80;49.70;;;;;;5049246;28;20515;-81
2023/08/13 03:31:31;;;;;;;366.50;217.17;;;18.80;49.80;;;;;;5056843;28;20821;-81
2023/08/13 03:37:19;;;;;;;544.80;231.27;;;18.70;49.70;;;;;;5043468;28;20400;-82
2023/08/13 03:43:07;;;;;;;503.10;242.37;;;18.60;46.40;;;;;;5048255;28;20231;-81
2023/08/13 03:48:54;;;;;;;453.17;234.83;;;18.50;49.50;;;;;;5036738;28;20203;-82
2023/08/13 03:51:20;;;;;;;418.07;237.37;;;18.50;49.60;;;;;;5045599;28;20439;-82
2023/08/13 03:57:07;;;;;;;386.77;223.17;;;18.50;49.50;;;;;;5056533;28;20292;-82
2023/08/13 03:59:33;;;;;;;467.93;253.43;;;18.30;46.10;;;;;;5051698;28;20446;-82
2023/08/13 04:01:59;;;;;;;439.60;239.57;;;18.40;46.20;;;;;;5040066;28;20230;-82
2023/08/13 04:04:25;;;;;;;420.67;245.67;;;18.50;49.60;;;;;;5041582;28;20194;-82
2023/08/13 04:06:51;;;;;;;372.03;224.73;;;18.40;49.40;;;;;;5048850;28;20417;-82
2023/08/13 04:09:17;;;;;;;401.00;229.57;;;18.40;46.20;;;;;;5053796;28;20454;-82
2023/08/13 04:12:31;;;;;;;398.77;243.60;;;18.50;49.60;;;;;;5046439;28;20417;-82
2023/08/13 04:15:08;;;;;;;443.17;246.87;;;18.50;49.50;;;;;;5052946;28;20262;-82
2023/08/13 04:18:07;;;;;;;425.57;255.90;;;18.50;49.50;;;;;;5045711;28;20428;-81
2023/08/13 04:20:44;;;;;;;420.53;231.60;;;18.50;49.50;;;;;;5042759;28;20819;-82
2023/08/13 04:26:44;;;;;;;395.97;228.67;;;18.50;49.50;;;;;;5055875;28;20403;-82
2023/08/13 04:32:32;;;;;;;431.07;226.53;;;18.50;49.50;;;;;;5035943;28;20938;-82
2023/08/13 04:41:41;;;;;;;19.87;15.97;;;18.60;49.60;;;;;;5035951;28;20471;-83
2023/08/13 04:44:26;;;;;;;14.47;11.57;;;18.60;49.60;;;;;;5045115;28;20470;-83
2023/08/13 04:50:13;;;;;;;21.60;15.27;;;18.70;49.70;;;;;;5054219;28;20611;-82
2023/08/13 04:52:56;;;;;;;16.80;6.73;;;;;;;;;;5054966;28;20918;-82
2023/08/13 04:58:44;;;;;;;18.20;12.00;;;18.80;50.10;;;;;;5055481;28;20446;-83
2023/08/13 05:04:38;;;;;;;19.03;12.43;;;18.90;50.10;;;;;;5044034;28;20215;-82
2023/08/13 05:07:07;;;;;;;39.33;13.90;;;;;;;;;;5038212;28;20470;-82
2023/08/13 05:12:55;;;;;;;24.40;21.90;;;19.10;46.80;;;;;;5055022;28;20368;-82
2023/08/13 05:15:20;;;;;;;20.23;8.67;;;19.10;50.10;;;;;;5054589;28;20438;-82
2023/08/13 05:22:01;;;;;;;81.03;73.47;;;19.20;50.10;;;;;;5044056;28;20195;-82
2023/08/13 05:27:49;;;;;;;268.40;205.30;;;19.40;50.30;;;;;;5044319;28;20457;-83
2023/08/13 05:31:07;;;;;;;386.53;261.70;;;19.50;50.40;;;;;;5041713;28;20970;-82
2023/08/13 05:41:01;;;;;;;385.37;258.47;;;19.90;50.70;;;;;;5038092;28;20427;-82
2023/08/13 05:47:31;;;;;;;313.07;245.53;;;20.00;39.60;;;;;;5054263;28;20482;-82
2023/08/13 05:49:57;;;;;;;339.10;253.03;;;20.10;43.10;;;;;;5052943;28;20814;-82
2023/08/13 05:52:26;;;;;;;309.13;236.10;;;20.20;39.20;;;;;;5053624;28;20400;-82
2023/08/13 05:55:19;;;;;;;324.77;250.73;;;20.20;40.40;;;;;;5038591;28;20199;-82
2023/08/13 05:58:25;;;;;;;175.97;156.90;;;20.30;39.60;;;;;;5035411;28;20421;-82
2023/08/13 06:00:51;;;;;;;316.40;241.60;;;20.40;37.70;;;;;;5051831;28;20405;-82
2023/08/13 06:07:06;;;;;;;357.17;261.90;;;20.60;33.80;;;;;;5052775;28;20232;-82
2023/08/13 06:12:55;;;;;;;270.37;227.73;;;;;;;;;;5047707;28;20404;-82
2023/08/13 06:15:20;;;;;;;239.90;204.87;;;20.90;25.90;;;;;;5052235;28;20493;-81
2023/08/13 06:17:48;;;;;;;271.60;222.87;;;21.00;28.30;;;;;;5047730;28;20498;-81
2023/08/13 06:23:50;;;;;;;305.13;251.47;;;;;;;;;;5048905;28;20416;-83
2023/08/13 06:30:08;;;;;;;340.07;275.37;;;21.40;11.40;;;;;;5051162;28;20508;-83
2023/08/13 06:32:33;;;;;;;355.57;274.47;;;21.60;12.60;;;;;;5039056;28;20789;-83
2023/08/13 06:34:59;;;;;;;265.47;234.80;;;21.60;8.40;;;;;;5052437;28;20433;-84
2023/08/13 06:37:25;;;;;;;228.73;204.73;;;21.70;1.00;;;;;;5042395;28;20175;-83
2023/08/13 06:39:50;;;;;;;188.70;169.47;;;21.80;1.00;;;;;;5051321;28;20600;-82
2023/08/13 06:42:20;;;;;;;248.40;221.57;;;21.90;1.00;;;;;;5050263;28;20172;-82
2023/08/13 06:44:50;;;;;;;238.60;213.13;;;22.00;1.00;;;;;;5053437;28;20734;-82
2023/08/13 06:57:21;;;;;;;282.20;251.87;;;22.30;1.00;;;;;;5041438;28;20398;-82
2023/08/13 07:03:56;;;;;;;317.93;278.70;;;22.40;1.00;;;;;;5052034;28;20186;-82
2023/08/13 07:07:06;;;;;;;306.40;269.77;;;22.40;1.00;;;;;;5038588;28;20423;-82
2023/08/13 07:12:54;;;;;;;404.50;342.77;;;22.60;1.00;;;;;;5050594;28;20394;-83
2023/08/13 07:19:32;;;;;;;432.20;364.20;;;23.00;1.00;;;;;;5050367;28;20435;-83
2023/08/13 07:22:31;;;;;;;473.87;387.43;;;23.10;1.00;;;;;;5049446;28;20443;-83
2023/08/13 07:25:03;;;;;;;508.37;396.87;;;23.20;1.00;;;;;;5042738;28;20415;-83
2023/08/13 07:27:28;;;;;;;518.07;426.10;;;23.20;1.00;;;;;;5045949;28;20427;-83
2023/08/13 07:29:55;;;;;;;434.57;384.57;;;23.30;1.00;;;;;;5041452;28;20468;-82
2023/08/13 07:32:32;;;;;;;508.80;432.50;;;23.50;1.00;;;;;;5033914;28;20210;-83
2023/08/13 07:35:06;;;;;;;558.60;464.67;;;23.50;1.00;;;;;;5036691;28;20779;-83
2023/08/13 07:37:33;;;;;;;506.17;428.97;;;23.40;1.00;;;;;;5052716;28;20434;-83
2023/08/13 07:40:21;;;;;;;490.50;416.37;;;23.40;1.00;;;;;;5052280;28;20410;-82
2023/08/13 07:42:47;;;;;;;492.10;411.67;;;;;;;;;;5031860;28;20408;-83
2023/08/13 07:45:17;;;;;;;522.83;452.60;;;23.70;1.00;;;;;;5041717;28;20429;-83
2023/08/13 07:47:43;;;;;;;445.17;396.73;;;23.60;1.00;;;;;;5044229;28;20540;-82
2023/08/13 07:50:56;;;;;;;478.90;416.57;;;23.70;1.00;;;;;;5049655;28;20469;-82
2023/08/13 07:53:21;;;;;;;489.63;423.77;;;23.70;1.00;;;;;;5046631;28;20866;-83
2023/08/13 07:55:49;;;;;;;467.33;415.83;;;23.70;1.00;;;;;;5047020;28;20409;-83
2023/08/13 07:58:15;;;;;;;477.90;415.60;;;23.80;1.00;;;;;;5032222;28;20177;-82
2023/08/13 08:00:41;;;;;;;481.37;430.13;;;23.90;1.00;;;;;;5049758;28;20834;-83
2023/08/13 08:03:08;;;;;;;431.57;385.60;;;23.90;1.00;;;;;;5045247;28;20497;-82
2023/08/13 08:05:35;;;;;;;422.23;377.60;;;23.70;1.00;;;;;;5045892;28;20449;-83
2023/08/13 08:08:01;;;;;;;423.17;378.00;;;23.90;1.00;;;;;;5050211;28;20523;-83
2023/08/13 08:10:32;;;;;;;432.17;385.87;;;23.90;1.00;;;;;;5046781;28;21031;-84
2023/08/13 08:12:58;;;;;;;463.90;414.30;;;24.10;1.00;;;;;;5047957;28;20447;-84
2023/08/13 08:15:25;;;;;;;424.57;379.53;;;24.20;1.00;;;;;;5046964;28;20430;-84
2023/08/13 08:17:51;;;;;;;498.47;444.60;;;24.30;1.00;;;;;;5038163;28;20182;-84
2023/08/13 08:20:16;;;;;;;432.70;388.07;;;24.30;1.00;;;;;;5049671;28;20493;-85
2023/08/13 08:23:08;;;;;;;407.90;365.33;;;23.90;1.00;;;;;;5049488;28;20186;-84
2023/08/13 08:25:34;;;;;;;429.27;382.03;;;23.50;1.00;;;;;;5045778;28;20183;-85
2023/08/13 08:28:43;;;;;;;419.27;374.90;;;23.40;1.00;;;;;;5035614;28;20403;-84
2023/08/13 08:37:53;;;;;;;417.97;374.07;;;24.10;1.00;;;;;;5055611;28;20436;-84
2023/08/13 08:47:05;;;;;;;471.70;421.33;;;24.60;1.00;;;;;;5050583;28;20966;-82
2023/08/13 08:50:27;;;;;;;491.00;440.37;;;25.10;1.00;;;;;;5046910;28;20959;-81
2023/08/13 08:52:53;;;;;;;615.33;505.20;;;25.10;1.00;;;;;;5044505;28;20489;-80
2023/08/13 08:55:45;;;;;;;492.23;439.80;;;25.20;1.00;;;;;;5054716;28;20511;-84
2023/08/13 08:58:20;;;;;;;791.93;540.07;;;25.10;1.00;;;;;;5055624;28;20385;-84
2023/08/13 09:04:32;;;;;;;855.07;538.93;;;25.30;1.00;;;;;;5051185;28;20427;-82
2023/08/13 09:07:07;;;;;;;843.73;574.27;;;25.40;1.00;;;;;;5055293;28;20388;-83
2023/08/13 09:12:55;;;;;;;894.57;562.27;;;25.80;1.00;;;;;;5041983;28;20438;-82
2023/08/13 09:15:21;;;;;;;894.53;579.03;;;26.10;1.00;;;;;;5053088;28;20422;-83
2023/08/13 09:17:48;;;;;;;905.47;594.23;;;26.30;1.00;;;;;;5054132;28;20418;-82
2023/08/13 09:20:20;;;;;;;895.57;603.23;;;26.60;1.00;;;;;;5053674;28;20188;-83
2023/08/13 09:22:50;;;;;;;928.90;604.87;;;26.80;1.00;;;;;;5050976;28;20868;-82
2023/08/13 09:25:55;;;;;;;887.07;535.13;;;26.60;1.00;;;;;;5055048;28;20412;-80
2023/08/13 09:28:32;;;;;;;855.63;467.33;;;26.70;1.00;;;;;;5054120;28;20446;-80
2023/08/13 09:34:52;;;;;;;844.17;450.03;;;26.90;1.00;;;;;;5042669;28;20450;-79
2023/08/13 09:37:44;;;;;;;846.20;459.40;;;26.80;1.00;;;;;;5054586;28;20407;-80
2023/08/13 09:40:09;;;;;;;849.47;465.40;;;27.00;1.00;;;;;;5054737;28;20504;-80
2023/08/13 09:43:09;;;;;;;912.77;591.93;;;27.20;1.00;;;;;;5052831;28;20569;-79
2023/08/13 09:45:35;;;;;;;901.63;566.10;;;27.20;1.00;;;;;;5034596;28;20183;-80
2023/08/13 09:51:31;;;;;;;837.27;435.83;;;26.90;1.00;;;;;;5043969;28;20426;-79
2023/08/13 09:57:21;;;;;;;819.30;619.53;;;26.90;1.00;;;;;;5043675;28;20770;-80
2023/08/13 10:00:14;;;;;;;367.37;334.13;;;26.90;1.00;;;;;;5044223;28;20406;-79
2023/08/13 10:09:28;;;;;;;395.70;358.63;;;27.40;1.00;;;;;;5053830;28;20472;-80
2023/08/13 10:12:14;;;;;;;467.80;425.17;;;27.30;1.00;;;;;;5053988;28;20414;-79
2023/08/13 10:24:48;;;;;;;916.30;607.13;;;27.60;1.00;;;;;;5034521;28;20396;-83
2023/08/13 10:27:20;;;;;;;917.20;596.23;;;27.50;1.00;;;;;;5040367;28;20542;-83
2023/08/13 10:33:59;;;;;;;910.37;571.70;;;27.50;1.00;;;;;;5052278;28;20912;-91
2023/08/13 10:40:02;;;;;;;908.97;587.63;;;28.10;1.00;;;;;;5034665;28;20444;-80
2023/08/13 10:42:51;;;;;;;903.87;591.67;;;28.10;1.00;;;;;;5046180;28;20444;-80
2023/08/13 10:52:03;;;;;;;892.00;575.63;;;27.90;1.00;;;;;;5033528;28;20372;-81
2023/08/13 10:57:52;;;;;;;885.47;560.87;;;28.80;1.00;;;;;;5049985;28;20401;-89
2023/08/13 11:00:42;;;;;;;881.60;565.80;;;28.60;1.00;;;;;;5044548;28;20413;-88
2023/08/13 11:06:32;;;;;;;909.30;618.43;;;28.80;1.00;;;;;;5034078;28;20757;-87
2023/08/13 11:09:09;;;;;;;930.10;659.60;;;29.10;1.00;;;;;;5043668;28;20463;-88
2023/08/13 11:15:15;;;;;;;912.73;624.00;;;29.10;1.00;;;;;;5033832;28;20452;-89
2023/08/13 11:17:50;;;;;;;931.13;657.77;;;28.90;1.00;;;;;;5034351;28;20898;-88
2023/08/13 11:20:19;;;;;;;926.80;680.10;;;28.40;1.00;;;;;;5050987;28;20421;-88
2023/08/13 11:23:31;;;;;;;936.10;672.03;;;28.60;1.00;;;;;;5040706;28;20457;-90
2023/08/13 11:29:58;;;;;;;914.57;647.83;;;28.40;1.00;;;;;;5037899;28;20463;-90
2023/08/13 11:36:02;;;;;;;927.93;642.97;;;28.60;1.00;;;;;;5047342;28;20420;-88
2023/08/13 11:41:51;;;;;;;934.17;683.50;;;28.80;1.00;;;;;;5043325;28;20485;-87
2023/08/13 11:44:18;;;;;;;941.53;680.07;;;28.80;1.00;;;;;;5036507;28;20437;-88
2023/08/13 11:46:55;;;;;;;944.40;687.10;;;28.50;1.00;;;;;;5039761;28;20448;-87
2023/08/13 11:53:12;;;;;;;936.30;651.63;;;28.10;1.00;;;;;;5054467;28;20411;-88
2023/08/13 11:55:44;;;;;;;917.93;633.43;;;28.00;1.00;;;;;;5039653;28;20788;-81
2023/08/13 11:58:09;;;;;;;887.57;582.60;;;28.20;1.00;;;;;;5043315;28;21095;-83
2023/08/13 12:00:38;;;;;;;859.73;510.50;;;28.00;1.00;;;;;;5043473;28;20439;-82
2023/08/13 12:03:04;;;;;;;869.47;529.27;;;28.20;1.00;;;;;;5051559;28;20212;-82
2023/08/13 12:05:44;;;;;;;886.83;569.27;;;28.20;1.00;;;;;;5055381;28;20428;-82
2023/08/13 12:11:31;;;;;;;881.50;565.90;;;28.30;1.00;;;;;;5051695;28;20485;-80
2023/08/13 12:17:19;;;;;;;888.53;582.33;;;28.50;1.00;;;;;;5039736;28;20229;-80
2023/08/13 12:23:32;;;;;;;892.53;588.27;;;28.70;1.00;;;;;;5051459;28;20244;-80
2023/08/13 12:32:41;;;;;;;891.67;588.80;;;28.50;1.00;;;;;;5056443;28;20399;-88
2023/08/13 12:35:14;;;;;;;911.00;619.30;;;28.90;1.00;;;;;;5055017;28;20430;-88
2023/08/13 12:41:55;;;;;;;875.00;560.73;;;28.90;1.00;;;;;;5056279;28;20420;-80
2023/08/13 12:44:44;;;;;;;868.60;542.23;;;29.10;1.00;;;;;;5047840;28;20409;-80
2023/08/13 12:51:19;;;;;;;885.63;577.97;;;29.10;1.00;;;;;;5045778;28;20564;-79
2023/08/13 12:57:07;;;;;;;866.83;534.03;;;28.90;1.00;;;;;;5045546;28;20414;-80
2023/08/13 13:03:08;;;;;;;901.17;612.63;;;29.20;1.00;;;;;;5054070;28;20189;-91
2023/08/13 13:06:13;;;;;;;859.23;550.33;;;29.50;1.00;;;;;;5054423;28;20512;-90
2023/08/13 13:12:01;;;;;;;922.03;656.90;;;29.30;1.00;;;;;;5049390;28;20444;-90
2023/08/13 13:15:08;;;;;;;931.53;683.80;;;29.30;1.00;;;;;;5047655;28;20435;-81
2023/08/13 13:21:43;;;;;;;935.17;671.50;;;29.10;1.00;;;;;;5054203;28;20456;-79
2023/08/13 13:30:56;;;;;;;748.20;668.73;;;28.10;1.00;;;;;;5046108;28;20411;-88
2023/08/13 13:37:14;;;;;;;708.80;641.20;;;28.00;1.00;;;;;;5050305;28;20421;-80
2023/08/13 13:43:43;;;;;;;724.03;652.67;;;28.50;1.00;;;;;;5035571;28;20501;-88
2023/08/13 13:46:14;;;;;;;739.70;669.83;;;28.90;1.00;;;;;;5053191;28;20433;-89
2023/08/13 13:48:56;;;;;;;487.27;442.53;;;29.30;1.00;;;;;;5053927;28;20421;-89
2023/08/13 13:52:13;;;;;;;433.80;394.23;;;29.60;1.00;;;;;;5039593;28;20439;-89
2023/08/13 13:58:32;;;;;;;747.53;678.73;;;29.70;1.00;;;;;;5050814;28;20420;-80
2023/08/13 14:01:02;;;;;;;610.43;555.53;;;30.00;1.00;;;;;;5049575;28;20483;-81
2023/08/13 14:03:52;;;;;;;651.27;595.37;;;29.90;1.00;;;;;;5048506;28;20438;-81
2023/08/13 14:06:32;;;;;;;603.60;550.60;;;29.80;1.00;;;;;;5045856;28;20424;-80
2023/08/13 14:09:15;;;;;;;560.87;510.47;;;29.90;1.00;;;;;;5051954;28;20475;-89
2023/08/13 14:15:04;;;;;;;435.73;395.83;;;29.40;1.00;;;;;;5045919;28;20461;-79
2023/08/13 14:17:50;;;;;;;619.73;566.23;;;29.40;1.00;;;;;;5044565;28;20514;-80
2023/08/13 14:20:44;;;;;;;447.87;406.63;;;29.80;1.00;;;;;;5048199;28;20457;-81
2023/08/13 14:23:29;;;;;;;571.93;522.10;;;29.80;1.00;;;;;;5052484;28;20421;-82
2023/08/13 14:26:44;;;;;;;488.67;444.67;;;29.90;1.00;;;;;;5044149;28;20469;-82
2023/08/13 14:29:09;;;;;;;633.00;576.83;;;29.90;1.00;;;;;;5039018;28;20499;-82
2023/08/13 14:31:45;;;;;;;602.70;548.73;;;30.00;1.00;;;;;;5040570;28;20453;-82
2023/08/13 14:34:10;;;;;;;685.23;625.97;;;30.00;1.00;;;;;;5033439;28;20256;-83
2023/08/13 14:36:36;;;;;;;490.80;446.43;;;30.30;1.00;;;;;;5044991;28;20561;-83
2023/08/13 14:39:03;;;;;;;332.80;304.70;;;30.60;1.00;;;;;;5042818;28;20610;-82
2023/08/13 14:41:30;;;;;;;522.00;476.57;;;30.40;1.00;;;;;;5045021;28;20234;-81
2023/08/13 14:44:26;;;;;;;475.17;431.57;;;30.20;1.00;;;;;;5048986;28;20418;-83
2023/08/13 14:47:20;;;;;;;357.27;325.40;;;30.30;1.00;;;;;;5050444;28;20458;-82
2023/08/13 14:53:44;;;;;;;321.97;295.70;;;30.30;1.00;;;;;;5053101;28;20437;-83
2023/08/13 14:56:44;;;;;;;663.50;606.50;;;30.60;1.00;;;;;;5047834;28;20438;-82
2023/08/13 14:59:10;;;;;;;693.53;633.03;;;30.50;1.00;;;;;;5046631;28;20896;-82
2023/08/13 15:05:26;;;;;;;762.17;687.40;;;31.10;1.00;;;;;;5046360;28;20210;-81
2023/08/13 15:11:14;;;;;;;810.03;735.43;;;30.90;1.00;;;;;;5050423;28;20925;-82
2023/08/13 15:13:44;;;;;;;948.27;741.20;;;31.50;1.00;;;;;;5037798;28;20871;-91
2023/08/13 15:16:44;;;;;;;956.50;750.10;;;31.80;1.00;;;;;;5045629;28;20402;-92
2023/08/13 15:19:20;;;;;;;913.70;751.80;;;31.90;1.00;;;;;;5044475;28;20394;-90
2023/08/13 15:22:14;;;;;;;881.30;762.40;;;31.90;1.00;;;;;;5036963;28;20405;-92
2023/08/13 15:28:14;;;;;;;967.57;774.13;;;32.10;1.00;;;;;;5047846;28;20431;-91
2023/08/13 15:30:40;;;;;;;976.30;798.70;;;;;;;;;;5037039;28;20547;-90
2023/08/13 15:33:14;;;;;;;975.50;793.93;;;32.80;1.00;;;;;;5039340;28;20423;-90
2023/08/13 15:36:32;;;;;;;959.87;773.23;;;32.50;1.00;;;;;;5055972;28;20437;-89
2023/08/13 15:42:44;;;;;;;963.67;769.43;;;32.90;1.00;;;;;;5037465;28;20399;-89
2023/08/13 15:45:20;;;;;;;965.27;779.73;;;32.90;1.00;;;;;;5055662;28;20433;-91
2023/08/13 15:48:14;;;;;;;966.80;790.00;;;34.10;1.00;;;;;;5049628;28;20437;-88
2023/08/13 15:51:19;;;;;;;963.63;797.93;;;34.90;1.00;;;;;;5040075;28;21174;-87
2023/08/13 15:54:32;;;;;;;968.23;818.87;;;35.80;1.00;;;;;;5050043;28;20426;-90
2023/08/13 16:01:14;;;;;;;938.13;802.27;;;38.10;1.00;;;;;;5047623;28;20778;-84
2023/08/13 16:04:32;;;;;;;930.53;813.53;;;39.40;1.00;;;;;;5055015;28;20425;-84
2023/08/13 16:07:08;;;;;;;940.23;834.63;;;40.60;1.00;;;;;;5055488;28;20425;-82
2023/08/13 16:09:44;;;;;;;932.80;830.40;;;41.20;1.00;;;;;;5054997;28;20470;-82
2023/08/13 16:12:44;;;;;;;935.57;832.87;;;41.50;1.00;;;;;;5054306;28;20928;-84
2023/08/13 16:19:20;;;;;;;914.50;815.33;;;43.00;1.00;;;;;;5050802;28;20498;-82
2023/08/13 16:21:56;;;;;;;926.63;827.47;;;44.00;1.00;;;;;;5055214;28;20468;-82
2023/08/13 16:24:32;;;;;;;918.23;819.23;;;43.00;1.00;;;;;;5055895;28;20410;-84
2023/08/13 16:27:14;;;;;;;929.60;829.80;;;42.60;1.00;;;;;;5054312;28;20421;-84
2023/08/13 16:33:15;;;;;;;942.77;840.27;;;40.10;1.00;;;;;;5050241;28;20416;-82
2023/08/13 16:36:14;;;;;;;908.33;807.97;;;40.00;1.00;;;;;;5043794;28;20437;-82
2023/08/13 16:38:44;;;;;;;912.83;812.30;;;40.30;1.00;;;;;;5055675;28;20410;-82
2023/08/13 16:41:20;;;;;;;938.90;836.17;;;40.70;1.00;;;;;;5054657;28;20422;-81
2023/08/13 16:47:44;;;;;;;1015.63;844.67;;;39.50;1.00;;;;;;5055192;28;20413;-82
2023/08/13 16:50:14;;;;;;;880.90;541.37;;;39.50;1.00;;;;;;5049937;28;20849;-82
2023/08/13 16:52:40;;;;;;;1024.87;802.77;;;40.10;1.00;;;;;;5052004;28;20857;-82
2023/08/13 16:55:14;;;;;;;949.17;703.30;;;40.10;1.00;;;;;;5045135;28;20456;-82
2023/08/13 16:58:08;;;;;;;917.40;644.93;;;40.50;1.00;;;;;;5055399;28;20171;-83
2023/08/13 17:00:44;;;;;;;845.77;563.17;;;41.00;1.00;;;;;;5053193;28;20497;-89
2023/08/13 17:06:32;;;;;;;720.80;366.63;;;39.10;1.00;;;;;;5055333;28;20514;-86
2023/08/13 17:09:02;;;;;;;698.27;284.87;;;37.20;1.00;;;;;;5055697;28;20564;-89
2023/08/13 17:11:56;;;;;;;730.20;322.83;;;36.10;1.00;;;;;;5053174;28;20230;-87
2023/08/13 17:14:23;;;;;;;741.63;294.03;;;35.10;1.00;;;;;;5056836;28;20526;-87
2023/08/13 17:16:49;;;;;;;714.63;242.43;;;34.10;1.00;;;;;;5047409;28;20430;-82
2023/08/13 17:19:22;;;;;;;662.73;157.27;;;33.40;1.00;;;;;;5053440;28;20425;-82
2023/08/13 17:21:48;;;;;;;736.93;245.00;;;32.80;1.00;;;;;;5048186;28;20184;-82
2023/08/13 17:24:15;;;;;;;689.93;199.53;;;;;;;;;;5040423;28;20431;-81
2023/08/13 17:26:44;;;;;;;680.87;192.40;;;;;;;;;;5048839;28;20933;-83
2023/08/13 17:32:44;;;;;;;685.27;179.43;;;31.10;1.00;;;;;;5054789;28;20405;-86
2023/08/13 17:38:56;;;;;;;942.80;577.07;;;30.40;1.00;;;;;;5046391;28;20394;-86
2023/08/13 17:41:50;;;;;;;1000.80;758.33;;;30.20;1.00;;;;;;5045172;28;20422;-90
2023/08/13 17:48:16;;;;;;;120.13;85.27;;;29.70;1.00;;;;;;5051845;28;20965;-90
2023/08/13 17:51:16;;;;;;;941.67;705.30;;;29.20;1.00;;;;;;5047264;28;20556;-91
2023/08/13 17:53:48;;;;;;;888.47;661.23;;;28.90;1.00;;;;;;5033858;28;20442;-87
2023/08/13 17:56:14;;;;;;;425.43;299.17;;;28.50;1.00;;;;;;5054751;28;20839;-89
2023/08/13 17:58:40;;;;;;;901.50;605.07;;;28.20;1.00;;;;;;5051942;28;20443;-87
2023/08/13 18:01:14;;;;;;;879.07;547.43;;;27.80;1.00;;;;;;5053510;28;20921;-82
2023/08/13 18:03:40;;;;;;;894.13;572.47;;;27.60;1.00;;;;;;5054156;28;20175;-82
2023/08/13 18:06:14;;;;;;;880.63;523.77;;;27.30;1.00;;;;;;5054137;28;20433;-89
2023/08/13 18:08:44;;;;;;;741.20;529.50;;;27.00;1.00;;;;;;5040025;28;20269;-89
2023/08/13 18:11:10;;;;;;;698.50;605.37;;;26.70;1.00;;;;;;5053073;28;20459;-89
2023/08/13 18:13:46;;;;;;;762.33;667.03;;;26.50;1.00;;;;;;5053666;28;20424;-89
2023/08/13 18:16:32;;;;;;;855.67;710.80;;;26.20;1.00;;;;;;5044817;28;20911;-89
2023/08/13 18:19:20;;;;;;;24.17;13.40;;;26.10;1.00;;;;;;5043764;28;20441;-89
2023/08/13 18:25:44;;;;;;;8.20;1.93;;;25.70;1.00;;;;;;5053843;28;20808;-89
2023/08/13 18:28:10;;;;;;;7.53;2.10;;;25.40;1.00;;;;;;5034363;28;20987;-89
2023/08/13 18:31:14;;;;;;;10.50;1.80;;;25.20;1.00;;;;;;5048463;28;20459;-83
2023/08/13 18:33:45;;;;;;;2.50;1.80;;;24.90;1.00;;;;;;5049094;28;20417;-88
2023/08/13 18:36:14;;;;;;;2.37;1.87;;;24.70;1.00;;;;;;5064737;28;20498;-89
2023/08/13 18:38:44;;;;;;;4.93;2.40;;;24.60;1.00;;;;;;5060784;28;20445;-88
2023/08/13 18:41:14;;;;;;;4.90;2.00;;;24.40;1.00;;;;;;5049030;28;20772;-88
2023/08/13 18:43:44;;;;;;;8.73;2.10;;;24.20;1.00;;;;;;5052903;28;20414;-88
2023/08/13 18:46:38;;;;;;;6.67;2.43;;;24.00;1.00;;;;;;5053328;28;20485;-82
2023/08/13 18:49:44;;;;;;;14.57;2.43;;;23.80;1.00;;;;;;5040758;28;20459;-88
2023/08/13 18:52:14;;;;;;;5.40;2.53;;;23.50;1.00;;;;;;5048562;28;20801;-88
2023/08/13 18:54:40;;;;;;;9.20;2.07;;;23.40;1.00;;;;;;5054087;28;20447;-88
2023/08/13 18:57:05;;;;;;;6.37;2.37;;;23.20;1.00;;;;;;5053076;28;20420;-87
2023/08/13 19:00:14;;;;;;;6.37;2.60;;;23.10;1.00;;;;;;5052258;28;20709;-88